sensor_id;sensor_type;location;lat;lon;timestamp;temperature;humidity
68943;DHT22;60852;52.190;4.422;2022-07-06T00:01:05;17.01;59.73
68943;DHT22;60852;52.190;4.422;2022-07-06T00:03:31;17.00;60.11
68943;DHT22;60852;52.190;4.422;2022-07-06T00:05:57;17.06;60.26
68943;DHT22;60852;52.190;4.422;2022-07-06T00:08:22;17.03;60.61
68943;DHT22;60852;52.190;4.422;2022-07-06T00:10:47;17.04;61.01
68943;DHT22;60852;52.190;4.422;2022-07-06T00:13:13;17.03;60.97
68943;DHT22;60852;52.190;4.422;2022-07-06T00:15:38;17.00;60.99
68943;DHT22;60852;52.190;4.422;2022-07-06T00:18:03;16.95;61.29
68943;DHT22;60852;52.190;4.422;2022-07-06T00:20:29;16.95;61.17
68943;DHT22;60852;52.190;4.422;2022-07-06T00:22:54;16.99;61.46
68943;DHT22;60852;52.190;4.422;2022-07-06T00:25:20;16.99;61.54
68943;DHT22;60852;52.190;4.422;2022-07-06T00:27:45;17.03;61.45
68943;DHT22;60852;52.190;4.422;2022-07-06T00:30:11;17.07;61.65
68943;DHT22;60852;52.190;4.422;2022-07-06T00:32:36;17.10;61.89
68943;DHT22;60852;52.190;4.422;2022-07-06T00:35:02;17.08;62.13
68943;DHT22;60852;52.190;4.422;2022-07-06T00:37:27;17.10;61.81
68943;DHT22;60852;52.190;4.422;2022-07-06T00:39:53;17.07;61.64
68943;DHT22;60852;52.190;4.422;2022-07-06T00:42:19;17.08;61.41
68943;DHT22;60852;52.190;4.422;2022-07-06T00:44:44;17.07;61.47
68943;DHT22;60852;52.190;4.422;2022-07-06T00:47:09;17.00;61.97
68943;DHT22;60852;52.190;4.422;2022-07-06T00:49:35;16.91;62.57
68943;DHT22;60852;52.190;4.422;2022-07-06T00:52:19;16.87;62.85
68943;DHT22;60852;52.190;4.422;2022-07-06T00:54:46;16.93;62.87
68943;DHT22;60852;52.190;4.422;2022-07-06T00:57:12;16.94;62.72
68943;DHT22;60852;52.190;4.422;2022-07-06T00:59:37;16.97;62.63
68943;DHT22;60852;52.190;4.422;2022-07-06T01:02:03;16.93;62.49
68943;DHT22;60852;52.190;4.422;2022-07-06T01:04:28;16.88;62.77
68943;DHT22;60852;52.190;4.422;2022-07-06T01:06:56;16.91;62.84
68943;DHT22;60852;52.190;4.422;2022-07-06T01:09:22;16.91;62.51
68943;DHT22;60852;52.190;4.422;2022-07-06T01:11:48;16.91;62.06
68943;DHT22;60852;52.190;4.422;2022-07-06T01:14:14;16.91;61.67
68943;DHT22;60852;52.190;4.422;2022-07-06T01:16:40;16.90;62.08
68943;DHT22;60852;52.190;4.422;2022-07-06T01:19:06;16.87;61.62
68943;DHT22;60852;52.190;4.422;2022-07-06T01:21:31;16.83;61.68
68943;DHT22;60852;52.190;4.422;2022-07-06T01:23:57;16.84;61.53
68943;DHT22;60852;52.190;4.422;2022-07-06T01:26:22;16.91;61.48
68943;DHT22;60852;52.190;4.422;2022-07-06T01:28:51;16.94;61.49
68943;DHT22;60852;52.190;4.422;2022-07-06T01:31:20;16.94;61.48
68943;DHT22;60852;52.190;4.422;2022-07-06T01:33:46;17.00;61.38
68943;DHT22;60852;52.190;4.422;2022-07-06T01:36:13;17.03;61.53
68943;DHT22;60852;52.190;4.422;2022-07-06T01:38:55;16.95;61.80
68943;DHT22;60852;52.190;4.422;2022-07-06T01:41:24;16.94;61.81
68943;DHT22;60852;52.190;4.422;2022-07-06T01:43:50;16.95;61.45
68943;DHT22;60852;52.190;4.422;2022-07-06T01:46:16;16.99;61.24
68943;DHT22;60852;52.190;4.422;2022-07-06T01:48:42;17.03;61.12
68943;DHT22;60852;52.190;4.422;2022-07-06T01:51:08;17.01;61.40
68943;DHT22;60852;52.190;4.422;2022-07-06T01:53:34;17.03;61.75
68943;DHT22;60852;52.190;4.422;2022-07-06T01:55:59;17.06;62.03
68943;DHT22;60852;52.190;4.422;2022-07-06T01:58:25;17.07;61.22
68943;DHT22;60852;52.190;4.422;2022-07-06T02:00:50;17.01;61.52
68943;DHT22;60852;52.190;4.422;2022-07-06T02:03:16;17.08;61.92
68943;DHT22;60852;52.190;4.422;2022-07-06T02:05:41;17.03;62.61
68943;DHT22;60852;52.190;4.422;2022-07-06T02:08:07;17.01;62.59
68943;DHT22;60852;52.190;4.422;2022-07-06T02:10:32;16.95;61.88
68943;DHT22;60852;52.190;4.422;2022-07-06T02:12:58;16.99;61.82
68943;DHT22;60852;52.190;4.422;2022-07-06T02:15:23;17.01;62.02
68943;DHT22;60852;52.190;4.422;2022-07-06T02:17:48;16.94;60.62
68943;DHT22;60852;52.190;4.422;2022-07-06T02:20:14;16.95;60.78
68943;DHT22;60852;52.190;4.422;2022-07-06T02:22:39;16.93;60.97
68943;DHT22;60852;52.190;4.422;2022-07-06T02:25:05;16.97;60.57
68943;DHT22;60852;52.190;4.422;2022-07-06T02:27:31;16.94;60.48
68943;DHT22;60852;52.190;4.422;2022-07-06T02:29:56;16.83;60.46
68943;DHT22;60852;52.190;4.422;2022-07-06T02:32:22;16.83;60.42
68943;DHT22;60852;52.190;4.422;2022-07-06T02:34:47;16.80;60.20
68943;DHT22;60852;52.190;4.422;2022-07-06T02:37:13;16.83;59.99
68943;DHT22;60852;52.190;4.422;2022-07-06T02:39:38;16.83;60.13
68943;DHT22;60852;52.190;4.422;2022-07-06T02:42:04;16.83;60.31
68943;DHT22;60852;52.190;4.422;2022-07-06T02:44:29;16.90;60.46
68943;DHT22;60852;52.190;4.422;2022-07-06T02:46:54;16.85;59.98
68943;DHT22;60852;52.190;4.422;2022-07-06T02:49:20;16.88;59.75
68943;DHT22;60852;52.190;4.422;2022-07-06T02:51:45;16.93;59.50
68943;DHT22;60852;52.190;4.422;2022-07-06T02:54:10;16.91;59.64
68943;DHT22;60852;52.190;4.422;2022-07-06T02:56:36;16.94;59.74
68943;DHT22;60852;52.190;4.422;2022-07-06T02:59:01;16.94;59.94
68943;DHT22;60852;52.190;4.422;2022-07-06T03:01:27;16.95;60.29
68943;DHT22;60852;52.190;4.422;2022-07-06T03:03:53;16.90;60.30
68943;DHT22;60852;52.190;4.422;2022-07-06T03:06:18;16.85;59.85
68943;DHT22;60852;52.190;4.422;2022-07-06T03:08:43;16.87;60.39
68943;DHT22;60852;52.190;4.422;2022-07-06T03:11:09;16.91;60.41
68943;DHT22;60852;52.190;4.422;2022-07-06T03:13:35;16.95;60.51
68943;DHT22;60852;52.190;4.422;2022-07-06T03:16:00;16.94;60.30
68943;DHT22;60852;52.190;4.422;2022-07-06T03:18:26;16.99;60.11
68943;DHT22;60852;52.190;4.422;2022-07-06T03:20:51;17.04;59.41
68943;DHT22;60852;52.190;4.422;2022-07-06T03:23:17;17.03;58.90
68943;DHT22;60852;52.190;4.422;2022-07-06T03:25:42;17.08;59.21
68943;DHT22;60852;52.190;4.422;2022-07-06T03:28:08;17.12;59.79
68943;DHT22;60852;52.190;4.422;2022-07-06T03:30:33;17.12;59.43
68943;DHT22;60852;52.190;4.422;2022-07-06T03:32:58;17.10;58.28
68943;DHT22;60852;52.190;4.422;2022-07-06T03:35:24;17.06;58.44
68943;DHT22;60852;52.190;4.422;2022-07-06T03:37:49;17.04;58.97
68943;DHT22;60852;52.190;4.422;2022-07-06T03:40:15;17.03;59.08
68943;DHT22;60852;52.190;4.422;2022-07-06T03:42:40;17.03;58.98
68943;DHT22;60852;52.190;4.422;2022-07-06T03:45:06;17.06;59.03
68943;DHT22;60852;52.190;4.422;2022-07-06T03:47:32;17.12;59.51
68943;DHT22;60852;52.190;4.422;2022-07-06T03:49:58;17.08;58.28
68943;DHT22;60852;52.190;4.422;2022-07-06T03:52:24;17.10;58.59
68943;DHT22;60852;52.190;4.422;2022-07-06T03:54:49;17.15;58.73
68943;DHT22;60852;52.190;4.422;2022-07-06T03:57:15;17.14;58.86
68943;DHT22;60852;52.190;4.422;2022-07-06T03:59:40;17.06;58.92
68943;DHT22;60852;52.190;4.422;2022-07-06T04:02:05;17.08;59.31
68943;DHT22;60852;52.190;4.422;2022-07-06T04:04:32;17.17;59.57
68943;DHT22;60852;52.190;4.422;2022-07-06T04:06:58;17.18;58.56
68943;DHT22;60852;52.190;4.422;2022-07-06T04:09:24;17.22;58.92
68943;DHT22;60852;52.190;4.422;2022-07-06T04:11:49;17.20;58.84
68943;DHT22;60852;52.190;4.422;2022-07-06T04:14:14;17.25;58.90
68943;DHT22;60852;52.190;4.422;2022-07-06T04:16:40;17.35;58.75
68943;DHT22;60852;52.190;4.422;2022-07-06T04:19:05;17.45;58.27
68943;DHT22;60852;52.190;4.422;2022-07-06T04:21:31;17.53;57.81
68943;DHT22;60852;52.190;4.422;2022-07-06T04:23:56;17.63;56.77
68943;DHT22;60852;52.190;4.422;2022-07-06T04:26:21;18.33;55.02
68943;DHT22;60852;52.190;4.422;2022-07-06T04:28:47;19.05;54.05
68943;DHT22;60852;52.190;4.422;2022-07-06T04:31:12;19.46;52.94
68943;DHT22;60852;52.190;4.422;2022-07-06T04:33:41;19.67;52.34
68943;DHT22;60852;52.190;4.422;2022-07-06T04:36:09;19.34;53.65
68943;DHT22;60852;52.190;4.422;2022-07-06T04:38:35;19.12;54.34
68943;DHT22;60852;52.190;4.422;2022-07-06T04:41:00;18.71;55.66
68943;DHT22;60852;52.190;4.422;2022-07-06T04:43:26;18.43;55.56
68943;DHT22;60852;52.190;4.422;2022-07-06T04:45:51;18.37;56.21
68943;DHT22;60852;52.190;4.422;2022-07-06T04:48:16;18.30;56.16
68943;DHT22;60852;52.190;4.422;2022-07-06T04:50:42;18.23;56.55
68943;DHT22;60852;52.190;4.422;2022-07-06T04:53:07;18.20;56.81
68943;DHT22;60852;52.190;4.422;2022-07-06T04:55:33;18.03;57.03
68943;DHT22;60852;52.190;4.422;2022-07-06T04:57:58;17.96;57.44
68943;DHT22;60852;52.190;4.422;2022-07-06T05:00:24;17.94;57.21
68943;DHT22;60852;52.190;4.422;2022-07-06T05:02:49;17.90;56.38
68943;DHT22;60852;52.190;4.422;2022-07-06T05:05:15;18.01;56.60
68943;DHT22;60852;52.190;4.422;2022-07-06T05:07:40;18.23;56.15
68943;DHT22;60852;52.190;4.422;2022-07-06T05:10:10;18.52;55.15
68943;DHT22;60852;52.190;4.422;2022-07-06T05:12:36;19.46;52.84
68943;DHT22;60852;52.190;4.422;2022-07-06T05:15:02;19.73;50.62
68943;DHT22;60852;52.190;4.422;2022-07-06T05:17:28;19.85;49.64
68943;DHT22;60852;52.190;4.422;2022-07-06T05:19:54;20.15;48.74
68943;DHT22;60852;52.190;4.422;2022-07-06T05:22:20;20.52;48.42
68943;DHT22;60852;52.190;4.422;2022-07-06T05:24:45;21.49;47.40
68943;DHT22;60852;52.190;4.422;2022-07-06T05:27:11;21.15;48.57
68943;DHT22;60852;52.190;4.422;2022-07-06T05:29:37;21.56;47.99
68943;DHT22;60852;52.190;4.422;2022-07-06T05:32:02;22.50;45.29
68943;DHT22;60852;52.190;4.422;2022-07-06T05:34:28;23.34;43.78
68943;DHT22;60852;52.190;4.422;2022-07-06T05:36:53;23.98;41.67
68943;DHT22;60852;52.190;4.422;2022-07-06T05:39:19;24.60;39.89
68943;DHT22;60852;52.190;4.422;2022-07-06T05:41:47;24.15;40.43
68943;DHT22;60852;52.190;4.422;2022-07-06T05:44:12;24.36;40.53
68943;DHT22;60852;52.190;4.422;2022-07-06T05:46:38;25.00;39.16
68943;DHT22;60852;52.190;4.422;2022-07-06T05:49:03;25.42;38.57
68943;DHT22;60852;52.190;4.422;2022-07-06T05:51:47;25.98;36.97
68943;DHT22;60852;52.190;4.422;2022-07-06T05:54:12;26.06;36.57
68943;DHT22;60852;52.190;4.422;2022-07-06T05:56:38;26.22;36.59
68943;DHT22;60852;52.190;4.422;2022-07-06T05:59:03;26.75;36.07
68943;DHT22;60852;52.190;4.422;2022-07-06T06:01:29;26.78;35.10
68943;DHT22;60852;52.190;4.422;2022-07-06T06:03:54;26.60;34.71
68943;DHT22;60852;52.190;4.422;2022-07-06T06:06:19;26.50;34.10
68943;DHT22;60852;52.190;4.422;2022-07-06T06:08:45;26.17;34.30
68943;DHT22;60852;52.190;4.422;2022-07-06T06:11:10;26.39;34.86
68943;DHT22;60852;52.190;4.422;2022-07-06T06:13:36;26.54;34.98
68943;DHT22;60852;52.190;4.422;2022-07-06T06:16:01;26.71;35.81
68943;DHT22;60852;52.190;4.422;2022-07-06T06:18:27;26.95;36.00
68943;DHT22;60852;52.190;4.422;2022-07-06T06:20:52;26.54;35.77
68943;DHT22;60852;52.190;4.422;2022-07-06T06:23:18;26.61;35.99
68943;DHT22;60852;52.190;4.422;2022-07-06T06:25:43;26.87;36.29
68943;DHT22;60852;52.190;4.422;2022-07-06T06:28:10;26.71;37.23
68943;DHT22;60852;52.190;4.422;2022-07-06T06:30:37;26.17;37.49
68943;DHT22;60852;52.190;4.422;2022-07-06T06:33:11;25.18;38.22
68943;DHT22;60852;52.190;4.422;2022-07-06T06:35:42;23.82;40.44
68943;DHT22;60852;52.190;4.422;2022-07-06T06:38:07;22.64;42.74
68943;DHT22;60852;52.190;4.422;2022-07-06T06:40:34;21.96;45.04
68943;DHT22;60852;52.190;4.422;2022-07-06T06:42:59;21.41;46.80
68943;DHT22;60852;52.190;4.422;2022-07-06T06:45:25;21.34;46.48
68943;DHT22;60852;52.190;4.422;2022-07-06T06:47:50;21.27;47.19
68943;DHT22;60852;52.190;4.422;2022-07-06T06:50:16;20.97;48.84
68943;DHT22;60852;52.190;4.422;2022-07-06T06:52:41;20.93;48.30
68943;DHT22;60852;52.190;4.422;2022-07-06T06:55:07;20.86;49.42
68943;DHT22;60852;52.190;4.422;2022-07-06T06:57:32;20.81;49.74
68943;DHT22;60852;52.190;4.422;2022-07-06T06:59:58;20.62;49.57
68943;DHT22;60852;52.190;4.422;2022-07-06T07:02:23;20.57;49.46
68943;DHT22;60852;52.190;4.422;2022-07-06T07:04:49;20.42;48.75
68943;DHT22;60852;52.190;4.422;2022-07-06T07:07:14;20.36;49.80
68943;DHT22;60852;52.190;4.422;2022-07-06T07:09:40;20.25;50.40
68943;DHT22;60852;52.190;4.422;2022-07-06T07:12:06;20.33;50.18
68943;DHT22;60852;52.190;4.422;2022-07-06T07:14:32;20.35;49.82
68943;DHT22;60852;52.190;4.422;2022-07-06T07:16:57;20.18;49.80
68943;DHT22;60852;52.190;4.422;2022-07-06T07:19:22;20.18;50.13
68943;DHT22;60852;52.190;4.422;2022-07-06T07:21:48;20.18;47.94
68943;DHT22;60852;52.190;4.422;2022-07-06T07:24:13;20.18;48.59
68943;DHT22;60852;52.190;4.422;2022-07-06T07:26:39;20.19;49.53
68943;DHT22;60852;52.190;4.422;2022-07-06T07:29:04;20.09;50.86
68943;DHT22;60852;52.190;4.422;2022-07-06T07:31:29;20.19;49.81
68943;DHT22;60852;52.190;4.422;2022-07-06T07:33:55;20.24;49.58
68943;DHT22;60852;52.190;4.422;2022-07-06T07:36:23;20.29;48.53
68943;DHT22;60852;52.190;4.422;2022-07-06T07:38:49;20.43;48.54
68943;DHT22;60852;52.190;4.422;2022-07-06T07:41:15;20.55;47.58
68943;DHT22;60852;52.190;4.422;2022-07-06T07:43:42;20.63;48.42
68943;DHT22;60852;52.190;4.422;2022-07-06T07:46:08;20.67;48.47
68943;DHT22;60852;52.190;4.422;2022-07-06T07:48:33;20.69;47.44
68943;DHT22;60852;52.190;4.422;2022-07-06T07:50:58;20.60;48.44
68943;DHT22;60852;52.190;4.422;2022-07-06T07:53:24;20.56;48.21
68943;DHT22;60852;52.190;4.422;2022-07-06T07:55:49;20.53;48.05
68943;DHT22;60852;52.190;4.422;2022-07-06T07:58:15;20.47;47.56
68943;DHT22;60852;52.190;4.422;2022-07-06T08:00:40;20.52;48.22
68943;DHT22;60852;52.190;4.422;2022-07-06T08:03:05;20.62;47.21
68943;DHT22;60852;52.190;4.422;2022-07-06T08:05:31;20.72;47.28
68943;DHT22;60852;52.190;4.422;2022-07-06T08:07:56;20.75;47.86
68943;DHT22;60852;52.190;4.422;2022-07-06T08:10:22;20.91;48.80
68943;DHT22;60852;52.190;4.422;2022-07-06T08:12:47;21.03;47.64
68943;DHT22;60852;52.190;4.422;2022-07-06T08:15:12;21.12;47.41
68943;DHT22;60852;52.190;4.422;2022-07-06T08:17:38;21.12;45.19
68943;DHT22;60852;52.190;4.422;2022-07-06T08:20:05;21.17;46.88
68943;DHT22;60852;52.190;4.422;2022-07-06T08:22:31;21.07;47.10
68943;DHT22;60852;52.190;4.422;2022-07-06T08:24:57;21.24;46.72
68943;DHT22;60852;52.190;4.422;2022-07-06T08:27:23;21.28;45.11
68943;DHT22;60852;52.190;4.422;2022-07-06T08:29:49;21.34;44.30
68943;DHT22;60852;52.190;4.422;2022-07-06T08:32:15;21.37;45.30
68943;DHT22;60852;52.190;4.422;2022-07-06T08:34:40;21.31;46.22
68943;DHT22;60852;52.190;4.422;2022-07-06T08:37:06;21.34;46.85
68943;DHT22;60852;52.190;4.422;2022-07-06T08:39:31;21.38;44.88
68943;DHT22;60852;52.190;4.422;2022-07-06T08:41:58;21.37;45.22
68943;DHT22;60852;52.190;4.422;2022-07-06T08:44:25;21.38;45.23
68943;DHT22;60852;52.190;4.422;2022-07-06T08:46:54;21.39;44.84
68943;DHT22;60852;52.190;4.422;2022-07-06T08:49:20;21.42;44.86
68943;DHT22;60852;52.190;4.422;2022-07-06T08:51:47;21.39;45.87
68943;DHT22;60852;52.190;4.422;2022-07-06T08:54:14;21.38;45.25
68943;DHT22;60852;52.190;4.422;2022-07-06T08:56:40;21.35;45.07
68943;DHT22;60852;52.190;4.422;2022-07-06T08:59:05;21.46;43.96
68943;DHT22;60852;52.190;4.422;2022-07-06T09:01:35;21.32;44.18
68943;DHT22;60852;52.190;4.422;2022-07-06T09:04:03;21.25;45.04
68943;DHT22;60852;52.190;4.422;2022-07-06T09:06:30;21.21;45.50
68943;DHT22;60852;52.190;4.422;2022-07-06T09:08:57;21.21;44.89
68943;DHT22;60852;52.190;4.422;2022-07-06T09:11:24;21.11;44.89
68943;DHT22;60852;52.190;4.422;2022-07-06T09:13:51;21.28;44.05
68943;DHT22;60852;52.190;4.422;2022-07-06T09:16:16;21.37;45.90
68943;DHT22;60852;52.190;4.422;2022-07-06T09:18:46;21.42;44.37
68943;DHT22;60852;52.190;4.422;2022-07-06T09:21:29;21.62;44.33
68943;DHT22;60852;52.190;4.422;2022-07-06T09:24:00;21.82;44.56
68943;DHT22;60852;52.190;4.422;2022-07-06T09:26:26;21.90;45.04
68943;DHT22;60852;52.190;4.422;2022-07-06T09:28:55;21.95;42.77
68943;DHT22;60852;52.190;4.422;2022-07-06T09:31:20;21.95;43.41
68943;DHT22;60852;52.190;4.422;2022-07-06T09:34:07;21.67;43.23
68943;DHT22;60852;52.190;4.422;2022-07-06T09:39:28;21.55;44.08
68943;DHT22;60852;52.190;4.422;2022-07-06T09:41:56;21.48;43.26
68943;DHT22;60852;52.190;4.422;2022-07-06T09:44:28;21.41;43.37
68943;DHT22;60852;52.190;4.422;2022-07-06T09:46:56;21.55;43.02
68943;DHT22;60852;52.190;4.422;2022-07-06T09:49:23;21.46;43.06
68943;DHT22;60852;52.190;4.422;2022-07-06T09:51:51;21.34;41.26
68943;DHT22;60852;52.190;4.422;2022-07-06T09:54:18;21.45;42.44
68943;DHT22;60852;52.190;4.422;2022-07-06T09:56:46;21.62;42.05
68943;DHT22;60852;52.190;4.422;2022-07-06T09:59:18;21.89;42.89
68943;DHT22;60852;52.190;4.422;2022-07-06T10:01:44;22.02;40.75
68943;DHT22;60852;52.190;4.422;2022-07-06T10:04:11;21.97;41.72
68943;DHT22;60852;52.190;4.422;2022-07-06T10:06:44;22.33;40.94
68943;DHT22;60852;52.190;4.422;2022-07-06T10:09:11;22.55;40.43
68943;DHT22;60852;52.190;4.422;2022-07-06T10:11:45;22.88;40.45
68943;DHT22;60852;52.190;4.422;2022-07-06T10:14:15;23.52;38.02
68943;DHT22;60852;52.190;4.422;2022-07-06T10:16:42;23.71;37.95
68943;DHT22;60852;52.190;4.422;2022-07-06T10:19:09;24.00;36.38
68943;DHT22;60852;52.190;4.422;2022-07-06T10:21:39;23.97;36.51
68943;DHT22;60852;52.190;4.422;2022-07-06T10:24:05;24.19;37.18
68943;DHT22;60852;52.190;4.422;2022-07-06T10:26:35;24.24;36.38
68943;DHT22;60852;52.190;4.422;2022-07-06T10:29:03;24.38;36.32
68943;DHT22;60852;52.190;4.422;2022-07-06T10:31:31;24.62;36.28
68943;DHT22;60852;52.190;4.422;2022-07-06T10:33:58;24.66;35.66
68943;DHT22;60852;52.190;4.422;2022-07-06T10:36:24;24.35;36.75
68943;DHT22;60852;52.190;4.422;2022-07-06T10:38:51;24.48;35.43
68943;DHT22;60852;52.190;4.422;2022-07-06T10:41:17;24.10;35.07
68943;DHT22;60852;52.190;4.422;2022-07-06T10:43:45;24.19;35.98
68943;DHT22;60852;52.190;4.422;2022-07-06T10:46:14;24.19;36.13
68943;DHT22;60852;52.190;4.422;2022-07-06T10:48:42;23.43;36.43
68943;DHT22;60852;52.190;4.422;2022-07-06T10:51:11;22.92;39.40
68943;DHT22;60852;52.190;4.422;2022-07-06T10:53:38;22.88;39.17
68943;DHT22;60852;52.190;4.422;2022-07-06T10:56:09;23.02;40.37
68943;DHT22;60852;52.190;4.422;2022-07-06T10:58:49;22.88;39.09
68943;DHT22;60852;52.190;4.422;2022-07-06T11:01:20;22.74;37.78
68943;DHT22;60852;52.190;4.422;2022-07-06T11:04:05;22.90;38.19
68943;DHT22;60852;52.190;4.422;2022-07-06T11:06:36;23.11;38.00
68943;DHT22;60852;52.190;4.422;2022-07-06T11:09:08;23.16;41.24
68943;DHT22;60852;52.190;4.422;2022-07-06T11:14:03;23.08;37.75
68943;DHT22;60852;52.190;4.422;2022-07-06T11:16:36;23.06;38.13
68943;DHT22;60852;52.190;4.422;2022-07-06T11:19:13;23.30;38.38
68943;DHT22;60852;52.190;4.422;2022-07-06T11:24:10;23.42;40.53
68943;DHT22;60852;52.190;4.422;2022-07-06T11:26:37;23.24;37.07
68943;DHT22;60852;52.190;4.422;2022-07-06T11:29:09;23.05;39.65
68943;DHT22;60852;52.190;4.422;2022-07-06T11:31:38;23.20;37.55
68943;DHT22;60852;52.190;4.422;2022-07-06T11:34:05;23.20;39.06
68943;DHT22;60852;52.190;4.422;2022-07-06T11:36:31;23.23;39.72
68943;DHT22;60852;52.190;4.422;2022-07-06T11:38:57;23.27;36.74
68943;DHT22;60852;52.190;4.422;2022-07-06T11:41:24;23.38;38.05
68943;DHT22;60852;52.190;4.422;2022-07-06T11:43:49;23.43;35.93
68943;DHT22;60852;52.190;4.422;2022-07-06T11:48:56;23.59;39.29
68943;DHT22;60852;52.190;4.422;2022-07-06T11:51:23;23.52;38.93
68943;DHT22;60852;52.190;4.422;2022-07-06T11:53:52;23.53;39.55
68943;DHT22;60852;52.190;4.422;2022-07-06T11:56:18;23.45;39.23
68943;DHT22;60852;52.190;4.422;2022-07-06T11:58:45;23.30;38.91
68943;DHT22;60852;52.190;4.422;2022-07-06T12:01:13;23.02;39.95
68943;DHT22;60852;52.190;4.422;2022-07-06T12:03:39;22.88;41.25
68943;DHT22;60852;52.190;4.422;2022-07-06T12:06:09;23.16;41.61
68943;DHT22;60852;52.190;4.422;2022-07-06T12:08:46;23.45;40.42
68943;DHT22;60852;52.190;4.422;2022-07-06T12:11:19;23.52;41.14
68943;DHT22;60852;52.190;4.422;2022-07-06T12:13:45;23.38;42.31
68943;DHT22;60852;52.190;4.422;2022-07-06T12:16:14;23.43;42.70
68943;DHT22;60852;52.190;4.422;2022-07-06T12:18:42;23.47;42.87
68943;DHT22;60852;52.190;4.422;2022-07-06T12:21:09;23.52;43.28
68943;DHT22;60852;52.190;4.422;2022-07-06T12:23:44;23.49;43.53
68943;DHT22;60852;52.190;4.422;2022-07-06T12:26:12;23.30;44.49
68943;DHT22;60852;52.190;4.422;2022-07-06T12:28:38;23.26;43.84
68943;DHT22;60852;52.190;4.422;2022-07-06T12:31:04;23.01;44.31
68943;DHT22;60852;52.190;4.422;2022-07-06T12:33:30;22.88;45.99
68943;DHT22;60852;52.190;4.422;2022-07-06T12:35:56;22.74;45.94
68943;DHT22;60852;52.190;4.422;2022-07-06T12:38:27;22.34;46.68
68943;DHT22;60852;52.190;4.422;2022-07-06T12:40:55;22.21;47.12
68943;DHT22;60852;52.190;4.422;2022-07-06T12:43:40;22.41;47.54
68943;DHT22;60852;52.190;4.422;2022-07-06T12:46:32;22.44;47.87
68943;DHT22;60852;52.190;4.422;2022-07-06T12:48:59;22.24;49.87
68943;DHT22;60852;52.190;4.422;2022-07-06T12:51:25;22.41;50.05
68943;DHT22;60852;52.190;4.422;2022-07-06T12:53:51;22.64;50.56
68943;DHT22;60852;52.190;4.422;2022-07-06T12:56:17;22.72;49.75
68943;DHT22;60852;52.190;4.422;2022-07-06T12:58:59;22.74;50.83
68943;DHT22;60852;52.190;4.422;2022-07-06T13:01:25;22.68;51.58
68943;DHT22;60852;52.190;4.422;2022-07-06T13:03:55;22.62;51.89
68943;DHT22;60852;52.190;4.422;2022-07-06T13:06:38;22.40;52.85
68943;DHT22;60852;52.190;4.422;2022-07-06T13:09:03;22.25;55.31
68943;DHT22;60852;52.190;4.422;2022-07-06T13:11:29;22.25;56.74
68943;DHT22;60852;52.190;4.422;2022-07-06T13:13:54;22.34;57.13
68943;DHT22;60852;52.190;4.422;2022-07-06T13:16:20;22.18;56.72
68943;DHT22;60852;52.190;4.422;2022-07-06T13:18:47;21.93;56.89
68943;DHT22;60852;52.190;4.422;2022-07-06T13:21:13;21.72;58.15
68943;DHT22;60852;52.190;4.422;2022-07-06T13:23:38;21.85;57.38
68943;DHT22;60852;52.190;4.422;2022-07-06T13:26:04;22.21;56.49
68943;DHT22;60852;52.190;4.422;2022-07-06T13:28:30;22.55;56.33
68943;DHT22;60852;52.190;4.422;2022-07-06T13:30:55;22.78;55.88
68943;DHT22;60852;52.190;4.422;2022-07-06T13:33:20;22.85;56.38
68943;DHT22;60852;52.190;4.422;2022-07-06T13:35:46;22.87;55.28
68943;DHT22;60852;52.190;4.422;2022-07-06T13:38:11;22.23;57.67
68943;DHT22;60852;52.190;4.422;2022-07-06T13:40:37;21.95;59.02
68943;DHT22;60852;52.190;4.422;2022-07-06T13:43:02;22.23;57.71
68943;DHT22;60852;52.190;4.422;2022-07-06T13:45:28;22.37;56.87
68943;DHT22;60852;52.190;4.422;2022-07-06T13:47:54;22.25;57.35
68943;DHT22;60852;52.190;4.422;2022-07-06T13:50:20;22.30;57.08
68943;DHT22;60852;52.190;4.422;2022-07-06T13:52:45;21.97;58.40
68943;DHT22;60852;52.190;4.422;2022-07-06T13:55:10;21.95;58.80
68943;DHT22;60852;52.190;4.422;2022-07-06T13:57:36;21.78;58.50
68943;DHT22;60852;52.190;4.422;2022-07-06T14:00:03;22.07;58.38
68943;DHT22;60852;52.190;4.422;2022-07-06T14:02:29;22.25;57.72
68943;DHT22;60852;52.190;4.422;2022-07-06T14:04:54;22.54;56.48
68943;DHT22;60852;52.190;4.422;2022-07-06T14:07:20;22.81;55.82
68943;DHT22;60852;52.190;4.422;2022-07-06T14:09:45;22.53;55.21
68943;DHT22;60852;52.190;4.422;2022-07-06T14:12:12;22.50;55.64
68943;DHT22;60852;52.190;4.422;2022-07-06T14:14:37;22.55;56.47
68943;DHT22;60852;52.190;4.422;2022-07-06T14:17:03;22.55;57.09
68943;DHT22;60852;52.190;4.422;2022-07-06T14:19:29;22.62;56.88
68943;DHT22;60852;52.190;4.422;2022-07-06T14:21:54;22.39;57.62
68943;DHT22;60852;52.190;4.422;2022-07-06T14:24:20;22.02;57.33
68943;DHT22;60852;52.190;4.422;2022-07-06T14:26:45;21.97;59.08
68943;DHT22;60852;52.190;4.422;2022-07-06T14:29:11;22.10;58.29
68943;DHT22;60852;52.190;4.422;2022-07-06T14:31:36;21.79;58.92
68943;DHT22;60852;52.190;4.422;2022-07-06T14:34:02;21.95;58.39
68943;DHT22;60852;52.190;4.422;2022-07-06T14:36:27;22.09;57.54
68943;DHT22;60852;52.190;4.422;2022-07-06T14:38:52;22.24;57.27
68943;DHT22;60852;52.190;4.422;2022-07-06T14:41:18;22.32;56.22
68943;DHT22;60852;52.190;4.422;2022-07-06T14:43:43;22.48;56.95
68943;DHT22;60852;52.190;4.422;2022-07-06T14:46:09;22.41;56.52
68943;DHT22;60852;52.190;4.422;2022-07-06T14:48:34;22.51;54.89
68943;DHT22;60852;52.190;4.422;2022-07-06T14:51:00;22.62;54.78
68943;DHT22;60852;52.190;4.422;2022-07-06T14:53:26;22.65;54.56
68943;DHT22;60852;52.190;4.422;2022-07-06T14:55:52;22.55;54.67
68943;DHT22;60852;52.190;4.422;2022-07-06T14:58:17;22.25;53.52
68943;DHT22;60852;52.190;4.422;2022-07-06T15:00:46;22.06;56.12
68943;DHT22;60852;52.190;4.422;2022-07-06T15:03:12;22.25;55.65
68943;DHT22;60852;52.190;4.422;2022-07-06T15:05:37;22.37;54.88
68943;DHT22;60852;52.190;4.422;2022-07-06T15:08:05;22.06;54.65
68943;DHT22;60852;52.190;4.422;2022-07-06T15:10:30;22.00;56.36
68943;DHT22;60852;52.190;4.422;2022-07-06T15:12:55;21.82;56.34
68943;DHT22;60852;52.190;4.422;2022-07-06T15:15:21;21.83;56.55
68943;DHT22;60852;52.190;4.422;2022-07-06T15:17:46;21.95;56.63
68943;DHT22;60852;52.190;4.422;2022-07-06T15:20:12;22.02;56.43
68943;DHT22;60852;52.190;4.422;2022-07-06T15:22:37;22.12;56.18
68943;DHT22;60852;52.190;4.422;2022-07-06T15:25:03;22.17;56.62
68943;DHT22;60852;52.190;4.422;2022-07-06T15:27:29;21.92;57.20
68943;DHT22;60852;52.190;4.422;2022-07-06T15:29:55;21.88;56.97
68943;DHT22;60852;52.190;4.422;2022-07-06T15:32:21;21.89;56.70
68943;DHT22;60852;52.190;4.422;2022-07-06T15:34:48;21.90;56.59
68943;DHT22;60852;52.190;4.422;2022-07-06T15:37:13;21.83;57.29